createdAt,value
2022-10-03T00:05:12.081Z,96305.00
2022-10-03T00:11:05.651Z,96311.00
2022-10-03T00:17:06.325Z,96312.00
2022-10-03T00:22:47.595Z,96323.00
2022-10-03T00:28:39.474Z,96327.00
2022-10-03T00:34:37.442Z,96325.00
2022-10-03T00:40:39.809Z,96329.00
2022-10-03T00:46:44.088Z,96342.00
2022-10-03T00:52:17.479Z,96344.00
2022-10-03T00:58:30.151Z,96344.00
2022-10-03T01:04:35.495Z,96346.00
2022-10-03T01:10:52.431Z,96347.00
2022-10-03T01:16:54.644Z,96353.00
2022-10-03T01:23:13.074Z,96351.00
2022-10-03T01:29:06.331Z,96352.00
2022-10-03T01:34:54.248Z,96356.00
2022-10-03T01:40:43.381Z,96361.00
2022-10-03T01:46:29.103Z,96372.00
2022-10-03T01:53:04.742Z,96387.00
2022-10-03T01:59:05.527Z,96382.00
2022-10-03T02:05:05.367Z,96399.00
2022-10-03T02:10:44.031Z,96400.00
2022-10-03T02:16:43.522Z,96405.00
2022-10-03T02:22:42.692Z,96405.00
2022-10-03T02:28:30.451Z,96393.00
2022-10-03T02:34:26.245Z,96402.00
2022-10-03T02:40:38.872Z,96406.00
2022-10-03T02:46:09.473Z,96409.00
2022-10-03T02:52:27.125Z,96405.00
2022-10-03T02:58:32.044Z,96411.00
2022-10-03T03:04:44.687Z,96423.00
2022-10-03T03:10:37.928Z,96426.00
2022-10-03T03:16:33.284Z,96419.00
2022-10-03T03:22:35.359Z,96425.00
2022-10-03T03:28:40.919Z,96436.00
2022-10-03T03:34:23.457Z,96445.00
2022-10-03T03:40:29.683Z,96441.00
2022-10-03T03:46:51.842Z,96445.00
2022-10-03T03:52:53.790Z,96446.00
2022-10-03T03:59:02.992Z,96448.00
2022-10-03T04:04:52.486Z,96453.00
2022-10-03T04:10:53.863Z,96454.00
2022-10-03T04:17:31.324Z,96459.00
2022-10-03T04:23:45.901Z,96457.00
2022-10-03T04:29:25.601Z,96456.00
2022-10-03T04:35:14.642Z,96448.00
2022-10-03T04:40:51.682Z,96456.00
2022-10-03T04:46:46.862Z,96453.00
2022-10-03T04:52:52.243Z,96457.00
2022-10-03T04:58:56.871Z,96464.00
2022-10-03T05:04:33.290Z,96464.00
2022-10-03T05:10:35.923Z,96465.00
2022-10-03T05:16:18.222Z,96453.00
2022-10-03T05:22:26.017Z,96464.00
2022-10-03T05:28:53.473Z,96477.00
2022-10-03T05:34:27.915Z,96474.00
2022-10-03T05:40:12.414Z,96490.00
2022-10-03T05:45:58.661Z,96493.00
2022-10-03T05:52:04.671Z,96494.00
2022-10-03T05:58:17.408Z,96502.00
2022-10-03T06:04:10.098Z,96506.00
2022-10-03T06:09:46.540Z,96521.00
2022-10-03T06:15:46.635Z,96522.00
2022-10-03T06:21:26.175Z,96527.00
2022-10-03T06:27:10.687Z,96538.00
2022-10-03T06:33:35.071Z,96546.00
2022-10-03T06:39:49.841Z,96553.00
2022-10-03T06:45:54.644Z,96555.00
2022-10-03T06:52:10.049Z,96557.00
2022-10-03T06:58:04.971Z,96571.00
2022-10-03T07:04:06.523Z,96561.00
2022-10-03T07:09:55.225Z,96567.00
2022-10-03T07:16:26.629Z,96561.00
2022-10-03T07:22:23.585Z,96576.00
2022-10-03T07:28:42.726Z,96569.00
2022-10-03T07:34:43.347Z,96575.00
2022-10-03T07:40:41.675Z,96583.00
2022-10-03T07:46:35.370Z,96597.00
2022-10-03T07:52:52.438Z,96589.00
2022-10-03T07:58:45.416Z,96601.00
2022-10-03T08:05:07.200Z,96597.00
2022-10-03T08:11:06.976Z,96595.00
2022-10-03T08:17:06.414Z,96591.00
2022-10-03T08:23:03.854Z,96597.00
2022-10-03T08:28:42.723Z,96613.00
2022-10-03T08:35:09.020Z,96619.00
2022-10-03T08:41:15.165Z,96611.00
2022-10-03T08:47:08.755Z,96613.00
2022-10-03T08:53:33.167Z,96628.00
2022-10-03T08:59:26.486Z,96637.00
2022-10-03T09:05:28.232Z,96638.00
2022-10-03T09:11:34.305Z,96632.00
2022-10-03T09:17:22.919Z,96632.00
2022-10-03T09:23:01.352Z,96629.00
2022-10-03T09:29:08.548Z,96630.00
2022-10-03T09:35:01.698Z,96623.00
2022-10-03T09:41:13.774Z,96635.00
2022-10-03T09:47:23.155Z,96629.00
2022-10-03T09:53:09.426Z,96634.00
2022-10-03T09:59:22.146Z,96635.00
2022-10-03T10:05:20.060Z,96644.00
2022-10-03T10:11:07.472Z,96631.00
2022-10-03T10:17:21.893Z,96627.00
2022-10-03T10:23:27.747Z,96620.00
2022-10-03T10:29:17.926Z,96624.00
2022-10-03T10:35:52.097Z,96601.00
2022-10-03T10:42:00.870Z,96609.00
2022-10-03T10:47:59.423Z,96611.00
2022-10-03T10:54:12.758Z,96611.00
2022-10-03T11:00:26.492Z,96607.00
2022-10-03T11:06:41.077Z,96620.00
2022-10-03T11:13:02.966Z,96598.00
2022-10-03T11:19:06.385Z,96607.00
2022-10-03T11:25:31.749Z,96603.00
2022-10-03T11:31:26.061Z,96595.00
2022-10-03T11:37:29.230Z,96592.00
2022-10-03T11:43:33.266Z,96581.00
2022-10-03T11:50:11.293Z,96581.00
2022-10-03T11:56:46.656Z,96591.00
2022-10-03T12:02:50.175Z,96587.00
2022-10-03T12:08:56.467Z,96586.00
2022-10-03T12:14:32.748Z,96574.00
2022-10-03T12:20:23.474Z,96568.00
2022-10-03T12:25:59.243Z,96562.00
2022-10-03T12:32:02.180Z,96554.00
2022-10-03T12:38:04.853Z,96560.00
2022-10-03T12:43:48.102Z,96560.00
2022-10-03T12:50:02.099Z,96559.00
2022-10-03T12:55:38.965Z,96557.00
2022-10-03T13:02:00.957Z,96556.00
2022-10-03T13:08:43.058Z,96555.00
2022-10-03T13:14:41.055Z,96548.00
2022-10-03T13:20:46.190Z,96543.00
2022-10-03T13:33:52.425Z,96545.00
2022-10-03T13:40:00.835Z,96534.00
2022-10-03T13:45:34.843Z,96533.00
2022-10-03T13:51:53.520Z,96530.00
2022-10-03T13:57:36.789Z,96513.00
2022-10-03T14:03:45.924Z,96533.00
2022-10-03T14:10:10.181Z,96500.00
2022-10-03T14:16:02.193Z,96492.00
2022-10-03T14:21:52.584Z,96474.00
2022-10-03T14:27:56.622Z,96500.00
2022-10-03T14:33:51.497Z,96535.00
2022-10-03T14:40:25.450Z,96491.00
2022-10-03T14:45:58.491Z,96538.00
2022-10-03T14:51:44.843Z,96512.00
2022-10-03T14:58:05.568Z,96526.00
2022-10-03T15:03:38.297Z,96523.00
2022-10-03T15:09:19.722Z,96517.00
2022-10-03T15:15:24.860Z,96511.00
2022-10-03T15:20:55.224Z,96506.00
2022-10-03T15:26:26.138Z,96519.00
2022-10-03T15:31:55.301Z,96512.00
2022-10-03T15:37:27.209Z,96514.00
2022-10-03T15:43:30.963Z,96499.00
2022-10-03T15:49:20.821Z,96509.00
2022-10-03T15:55:06.693Z,96508.00
2022-10-03T16:00:39.938Z,96520.00
2022-10-03T16:06:35.909Z,96507.00
2022-10-03T16:12:22.561Z,96513.00
2022-10-03T16:17:57.236Z,96499.00
2022-10-03T16:23:30.582Z,96506.00
2022-10-03T16:29:13.047Z,96506.00
2022-10-03T16:34:44.764Z,96507.00
2022-10-03T16:40:22.667Z,96506.00
2022-10-03T16:45:51.442Z,96511.00
2022-10-03T16:51:25.113Z,96508.00
2022-10-03T16:57:00.281Z,96510.00
2022-10-03T17:02:30.959Z,96513.00
2022-10-03T17:08:23.818Z,96516.00
2022-10-03T17:14:04.513Z,96520.00
2022-10-03T17:19:50.364Z,96521.00
2022-10-03T17:25:20.820Z,96523.00
2022-10-03T17:30:57.085Z,96519.00
2022-10-03T17:37:07.144Z,96515.00
2022-10-03T17:43:28.239Z,96523.00
2022-10-03T17:50:24.736Z,96520.00
2022-10-03T17:56:06.941Z,96528.00
2022-10-03T18:01:42.021Z,96529.00
2022-10-03T18:07:25.822Z,96520.00
2022-10-03T18:12:58.867Z,96530.00
2022-10-03T18:18:52.611Z,96523.00
2022-10-03T18:24:49.882Z,96510.00
2022-10-03T18:30:47.477Z,96515.00
2022-10-03T19:30:46.931Z,96515.00
2022-10-03T19:37:45.130Z,96519.00
2022-10-03T19:43:44.831Z,96513.00
2022-10-03T19:49:44.028Z,96514.00
2022-10-03T19:55:31.420Z,96509.00
2022-10-03T20:01:00.603Z,96512.00
2022-10-03T20:06:37.771Z,96512.00
2022-10-03T20:12:11.573Z,96516.00
2022-10-03T20:17:41.082Z,96508.00
2022-10-03T20:23:16.323Z,96516.00
2022-10-03T20:28:59.895Z,96515.00
2022-10-03T20:34:29.092Z,96511.00
2022-10-03T20:40:20.239Z,96505.00
2022-10-03T20:46:19.993Z,96498.00
2022-10-03T20:51:54.255Z,96492.00
2022-10-03T20:57:30.872Z,96496.00
2022-10-03T21:03:11.429Z,96500.00
2022-10-03T21:08:43.089Z,96490.00
2022-10-03T21:14:22.124Z,96489.00
2022-10-03T21:20:12.375Z,96488.00
2022-10-03T21:25:42.710Z,96485.00
2022-10-03T21:31:22.113Z,96478.00
2022-10-03T21:37:06.096Z,96477.00
2022-10-03T21:43:07.294Z,96478.00
2022-10-03T21:49:19.884Z,96472.00
2022-10-03T21:55:02.994Z,96469.00
2022-10-03T22:01:23.446Z,96478.00
2022-10-03T22:07:20.055Z,96463.00
2022-10-03T22:13:06.074Z,96435.00
2022-10-03T22:19:19.669Z,96437.00
2022-10-03T22:25:26.967Z,96436.00
2022-10-03T22:31:34.473Z,96407.00
2022-10-03T22:37:03.930Z,96419.00
2022-10-03T22:42:43.052Z,96415.00
2022-10-03T22:48:26.602Z,96411.00
2022-10-03T22:54:07.891Z,96396.00
2022-10-03T22:59:48.536Z,96395.00
2022-10-03T23:06:11.052Z,96383.00
2022-10-03T23:11:40.946Z,96401.00
2022-10-03T23:17:45.522Z,96395.00
2022-10-03T23:23:25.245Z,96400.00
2022-10-03T23:29:17.027Z,96392.00
2022-10-03T23:34:46.372Z,96389.00
2022-10-03T23:40:28.873Z,96382.00
2022-10-03T23:46:18.590Z,96393.00
2022-10-03T23:51:48.360Z,96381.00
2022-10-03T23:57:18.523Z,96382.00
